Time;durP1;ratioP1;P1;durP2;ratioP2;P2;SDS_P1;SDS_P2;PMS_P1;PMS_P2;Temp;Humidity;BMP_temperature;BMP_pressure;BME280_temperature;BME280_humidity;BME280_pressure;Samples;Min_cycle;Max_cycle;Signal;HPM_P1;HPM_P2
2022/05/11 00:01:49;;;;;;;3.83;3.53;;;;;;;22.15;37.65;95373.28;6206875;28;104156;-59
2022/05/11 00:04:51;;;;;;;3.90;3.60;;;;;;;22.15;37.68;95373.28;6196550;28;104788;-58
2022/05/11 00:07:53;;;;;;;4.30;4.00;;;;;;;22.13;37.80;95375.47;6201104;28;103759;-59
2022/05/11 00:10:54;;;;;;;4.10;3.80;;;;;;;22.12;37.86;95388.00;6197239;28;103739;-59
2022/05/11 00:13:58;;;;;;;3.60;3.30;;;;;;;22.13;37.57;95392.25;6208339;28;105043;-59
2022/05/11 00:17:00;;;;;;;3.83;3.57;;;;;;;22.11;37.33;95378.44;6198293;28;104842;-60
2022/05/11 00:20:06;;;;;;;3.50;3.23;;;;;;;22.13;37.38;95386.13;6206708;28;103628;-56
2022/05/11 00:23:08;;;;;;;4.00;3.33;;;;;;;22.11;37.43;95381.09;6203692;28;105281;-58
2022/05/11 00:26:10;;;;;;;3.77;3.47;;;;;;;22.09;37.70;95376.06;6201923;28;104964;-59
2022/05/11 00:29:11;;;;;;;3.60;3.40;;;;;;;22.08;37.82;95379.81;6194237;28;103797;-59
2022/05/11 00:32:13;;;;;;;4.30;4.00;;;;;;;22.09;37.40;95380.59;6186962;28;103540;-58
2022/05/11 00:35:15;;;;;;;3.90;3.60;;;;;;;22.08;37.80;95371.81;6208744;28;103952;-59
2022/05/11 00:38:21;;;;;;;3.47;3.23;;;;;;;22.08;37.64;95361.16;6201290;28;104196;-59
2022/05/11 00:41:23;;;;;;;3.90;3.60;;;;;;;22.07;37.37;95366.78;6206277;28;104849;-59
2022/05/11 00:44:24;;;;;;;3.13;2.90;;;;;;;22.07;37.69;95356.91;6203086;28;104905;-58
2022/05/11 00:47:48;;;;;;;3.97;3.67;;;;;;;22.05;37.60;95367.09;6201432;28;104992;-58
2022/05/11 00:50:50;;;;;;;3.40;3.20;;;;;;;22.06;37.61;95374.00;6197440;28;105265;-59
2022/05/11 00:53:53;;;;;;;3.90;3.60;;;;;;;22.05;37.58;95377.75;6183279;28;105340;-59
2022/05/11 00:57:00;;;;;;;3.73;3.43;;;;;;;22.06;37.31;95379.31;6203374;28;104979;-59
2022/05/11 01:00:07;;;;;;;3.40;3.10;;;;;;;22.05;37.49;95380.41;6184240;28;103532;-59
2022/05/11 01:03:23;;;;;;;3.40;3.20;;;;;;;22.04;37.61;95386.81;6183188;28;104489;-59
2022/05/11 01:06:25;;;;;;;3.50;3.00;;;;;;;22.04;37.70;95381.50;6206523;28;103759;-59
2022/05/11 01:09:27;;;;;;;3.77;3.47;;;;;;;22.04;37.19;95378.03;6194285;28;103808;-59
2022/05/11 01:12:39;;;;;;;3.17;2.97;;;;;;;22.04;37.74;95384.16;6178636;28;104714;-58
2022/05/11 01:15:45;;;;;;;3.30;3.10;;;;;;;22.03;37.15;95387.91;6206021;28;103752;-58
2022/05/11 01:18:48;;;;;;;3.67;3.30;;;;;;;22.03;37.05;95382.59;6207987;28;104918;-59
2022/05/11 01:21:57;;;;;;;3.37;3.17;;;;;;;22.04;37.53;95378.84;6209019;28;104732;-58
2022/05/11 01:24:59;;;;;;;3.20;3.00;;;;;;;22.01;37.20;95375.94;6198673;28;104959;-59
2022/05/11 01:28:13;;;;;;;3.50;3.10;;;;;;;22.01;37.30;95368.78;6203724;28;103829;-58
2022/05/11 01:31:16;;;;;;;2.90;2.70;;;;;;;22.03;37.04;95369.25;6208697;28;103643;-58
2022/05/11 01:34:24;;;;;;;2.97;2.77;;;;;;;22.02;37.18;95366.91;6183227;28;103598;-55
2022/05/11 01:37:26;;;;;;;3.07;2.87;;;;;;;22.00;37.50;95367.16;6183885;28;103638;-54
2022/05/11 01:40:28;;;;;;;4.07;3.10;;;;;;;22.00;37.50;95372.50;6184167;28;104645;-55
2022/05/11 01:43:33;;;;;;;3.10;2.80;;;;;;;21.99;36.99;95373.59;6199204;28;103352;-54
2022/05/11 01:46:36;;;;;;;3.30;3.00;;;;;;;21.97;37.30;95367.75;6189009;28;103744;-55
2022/05/11 01:49:38;;;;;;;3.27;3.07;;;;;;;21.97;37.26;95366.97;6205483;28;103868;-54
2022/05/11 01:52:40;;;;;;;3.37;3.10;;;;;;;21.97;36.96;95367.75;6190075;28;104785;-54
2022/05/11 01:55:42;;;;;;;3.17;2.97;;;;;;;21.98;37.44;95368.56;6205830;28;104034;-55
2022/05/11 01:58:44;;;;;;;2.97;2.77;;;;;;;21.90;37.12;95359.38;6192841;28;103980;-54
2022/05/11 02:01:46;;;;;;;3.10;2.90;;;;;;;21.94;37.41;95368.38;6201971;28;103805;-54
2022/05/11 02:08:10;;;;;;;2.73;2.53;;;;;;;21.93;37.11;95361.47;6200879;28;103979;-54
2022/05/11 02:11:13;;;;;;;3.10;2.90;;;;;;;21.94;37.24;95365.69;6194807;28;103845;-55
2022/05/11 02:14:15;;;;;;;2.90;2.60;;;;;;;21.94;37.28;95370.25;6201268;28;103882;-55
2022/05/11 02:17:20;;;;;;;3.47;3.17;;;;;;;21.93;36.94;95374.78;6204596;28;104668;-55
2022/05/11 02:20:23;;;;;;;2.70;2.60;;;;;;;21.91;37.14;95371.63;6202209;28;103727;-55
2022/05/11 02:23:25;;;;;;;2.83;2.73;;;;;;;21.91;37.32;95374.28;6202892;28;103540;-54
2022/05/11 02:26:27;;;;;;;2.93;2.73;;;;;;;21.94;37.41;95373.69;6205520;28;103705;-54
2022/05/11 02:29:29;;;;;;;3.17;2.87;;;;;;;21.92;37.08;95370.53;6203994;28;103898;-54
2022/05/11 02:32:31;;;;;;;3.20;3.00;;;;;;;21.91;37.26;95360.97;6196880;28;103685;-55
2022/05/11 02:35:33;;;;;;;2.90;2.70;;;;;;;21.91;37.19;95362.84;6206558;28;103866;-54
2022/05/11 02:38:35;;;;;;;2.90;2.70;;;;;;;21.89;36.98;95365.81;6204698;28;105599;-54
2022/05/11 02:41:37;;;;;;;2.70;2.50;;;;;;;21.89;37.05;95375.69;6207594;28;104971;-54
2022/05/11 02:44:39;;;;;;;3.20;2.90;;;;;;;21.90;37.27;95377.25;6187457;28;104552;-54
2022/05/11 02:47:41;;;;;;;2.80;2.60;;;;;;;21.88;37.36;95380.22;6204462;28;103935;-54
2022/05/11 02:50:47;;;;;;;2.97;2.77;;;;;;;21.89;37.05;95375.69;6207080;28;104771;-55
2022/05/11 02:53:48;;;;;;;2.90;2.70;;;;;;;21.88;36.96;95376.75;6209688;28;103378;-55
2022/05/11 02:56:50;;;;;;;2.83;2.63;;;;;;;21.91;36.71;95378.81;6203963;28;105395;-55
2022/05/11 02:59:52;;;;;;;2.57;2.37;;;;;;;21.87;37.24;95383.97;6191243;28;103748;-54
2022/05/11 03:02:53;;;;;;;2.80;2.60;;;;;;;21.86;36.75;95379.72;6211322;28;103509;-54
2022/05/11 03:05:55;;;;;;;2.67;2.47;;;;;;;21.86;36.82;95387.72;6202108;28;103953;-55
2022/05/11 03:08:57;;;;;;;2.80;2.60;;;;;;;21.87;36.85;95391.16;6210738;28;103841;-54
2022/05/11 03:12:00;;;;;;;3.13;2.83;;;;;;;21.86;36.96;95387.72;6203565;28;104708;-54
2022/05/11 03:15:03;;;;;;;2.87;2.67;;;;;;;21.85;37.32;95386.13;6206062;28;103894;-53
2022/05/11 03:18:06;;;;;;;3.10;2.80;;;;;;;21.85;36.92;95394.13;6199355;28;103797;-54
2022/05/11 03:21:07;;;;;;;2.40;2.20;;;;;;;21.87;37.16;95402.63;6210528;28;104773;-54
2022/05/11 03:24:09;;;;;;;6.13;2.90;;;;;;;21.85;37.16;95406.66;6206366;28;106811;-59
2022/05/11 03:27:11;;;;;;;4.50;2.80;;;;;;;21.78;36.88;95396.34;6211232;28;105033;-59
2022/05/11 03:30:13;;;;;;;3.57;3.27;;;;;;;21.72;37.07;95397.53;6198084;28;103867;-60
2022/05/11 03:36:35;;;;;;;3.77;2.80;;;;;;;21.72;37.31;95397.53;6211413;28;105293;-59
2022/05/11 03:39:38;;;;;;;4.30;3.90;;;;;;;21.73;36.64;95393.78;6188517;28;104881;-59
2022/05/11 03:42:41;;;;;;;4.90;3.70;;;;;;;21.68;36.85;95394.69;6203781;28;104880;-59
2022/05/11 03:45:43;;;;;;;6.63;3.70;;;;;;;21.62;36.91;95392.38;6209296;28;104825;-58
2022/05/11 03:48:44;;;;;;;3.83;3.53;;;;;;;21.64;36.50;95390.22;6207890;28;104987;-58
2022/05/11 03:51:47;;;;;;;7.43;3.80;;;;;;;21.58;36.72;95389.53;6194093;28;104766;-62
2022/05/11 03:54:48;;;;;;;7.47;3.10;;;;;;;21.60;36.84;95399.88;6205120;28;104979;-58
2022/05/11 03:57:50;;;;;;;3.60;3.30;;;;;;;21.68;37.87;95404.53;6206243;28;103774;-59
2022/05/11 04:00:52;;;;;;;11.07;3.83;;;;;;;21.77;38.27;95406.22;6205927;28;103877;-58
2022/05/11 04:03:54;;;;;;;3.83;3.53;;;;;;;21.79;38.62;95413.91;6191660;28;103812;-58
2022/05/11 04:06:55;;;;;;;6.00;3.10;;;;;;;21.80;37.70;95413.59;6205661;28;103359;-58
2022/05/11 04:09:57;;;;;;;5.10;3.40;;;;;;;21.83;37.98;95412.25;6206222;28;104475;-57
2022/05/11 04:13:03;;;;;;;5.23;3.97;;;;;;;21.85;37.74;95415.44;6193773;28;105000;-57
2022/05/11 04:16:07;;;;;;;6.43;3.60;;;;;;;21.89;38.68;95424.41;6197046;28;104985;-58
2022/05/11 04:19:09;;;;;;;3.87;3.43;;;;;;;21.85;38.76;95423.44;6202775;28;104018;-59
2022/05/11 04:22:10;;;;;;;7.53;3.90;;;;;;;21.87;37.69;95425.81;6198705;28;103740;-63
2022/05/11 04:25:15;;;;;;;4.10;3.70;;;;;;;21.81;37.97;95433.03;6179115;28;104506;-60
2022/05/11 04:28:18;;;;;;;3.60;3.40;;;;;;;21.72;36.91;95440.16;6180929;28;103131;-60
2022/05/11 04:31:19;;;;;;;3.80;3.30;;;;;;;21.67;36.53;95442.88;6185376;28;104955;-59
2022/05/11 04:34:21;;;;;;;3.40;3.10;;;;;;;21.69;37.49;95446.84;6185212;28;104774;-59
2022/05/11 04:37:24;;;;;;;5.37;2.97;;;;;;;21.70;37.58;95447.66;6175032;28;104099;-59
2022/05/11 04:40:27;;;;;;;4.40;4.00;;;;;;;21.70;37.51;95450.31;6182227;28;104291;-59
2022/05/11 04:43:29;;;;;;;3.77;3.47;;;;;;;21.68;37.81;95444.50;6182610;28;104867;-59
2022/05/11 04:46:33;;;;;;;4.40;3.57;;;;;;;21.69;37.44;95457.50;6182606;28;103614;-60
2022/05/11 04:49:35;;;;;;;3.30;3.00;;;;;;;21.69;37.24;95456.72;6171097;28;103731;-59
2022/05/11 04:52:37;;;;;;;5.40;3.60;;;;;;;21.68;37.83;95463.13;6182643;28;104395;-59
2022/05/11 04:55:40;;;;;;;3.47;2.87;;;;;;;21.70;37.59;95460.97;6184528;28;104863;-59
2022/05/11 04:58:48;;;;;;;3.90;3.60;;;;;;;21.69;37.78;95457.50;6180441;28;104760;-59
2022/05/11 05:01:51;;;;;;;4.13;3.83;;;;;;;21.68;37.70;95461.25;6180399;28;103852;-59
2022/05/11 05:04:59;;;;;;;3.50;3.30;;;;;;;21.68;37.70;95460.47;6184723;28;104863;-59
2022/05/11 05:08:01;;;;;;;4.90;4.03;;;;;;;21.66;37.84;95462.59;6183627;28;103600;-59
2022/05/11 05:11:02;;;;;;;6.40;4.80;;;;;;;21.68;37.41;95471.13;6173943;28;104936;-59
2022/05/11 05:14:08;;;;;;;4.80;4.07;;;;;;;21.65;37.33;95459.16;6199285;28;103839;-59
2022/05/11 05:17:12;;;;;;;6.50;4.90;;;;;;;21.63;37.54;95455.22;6209240;28;104977;-59
2022/05/11 05:20:14;;;;;;;14.20;5.13;;;;;;;21.69;38.48;95462.84;6208810;28;103908;-60
2022/05/11 05:23:16;;;;;;;6.30;4.50;;;;;;;21.80;37.90;95463.44;6199657;28;103927;-59
2022/05/11 05:26:18;;;;;;;4.90;4.50;;;;;;;21.77;37.37;95470.16;6208611;28;103682;-57
2022/05/11 05:32:43;;;;;;;10.10;5.33;;;;;;;21.77;38.23;95472.81;6208531;28;103609;-57
2022/05/11 05:35:44;;;;;;;5.70;5.10;;;;;;;21.77;38.29;95467.47;6199872;28;103619;-57
2022/05/11 05:38:46;;;;;;;5.03;4.53;;;;;;;21.85;37.94;95475.94;6208914;28;104437;-57
2022/05/11 05:41:48;;;;;;;5.07;4.57;;;;;;;21.90;38.45;95468.63;6208022;28;104992;-57
2022/05/11 05:44:50;;;;;;;5.10;4.60;;;;;;;21.99;37.52;95480.16;6201786;28;103825;-57
2022/05/11 05:47:52;;;;;;;5.27;4.87;;;;;;;22.03;37.82;95475.84;6206035;28;103151;-57
2022/05/11 05:51:01;;;;;;;6.03;4.40;;;;;;;22.09;37.84;95482.66;6207362;28;103054;-57
2022/05/11 05:54:03;;;;;;;9.70;4.70;;;;;;;22.15;37.84;95491.34;6208212;28;103789;-57
2022/05/11 05:57:05;;;;;;;5.77;5.27;;;;;;;22.19;37.73;95489.69;6197563;28;104892;-56
2022/05/11 06:00:07;;;;;;;5.83;5.27;;;;;;;22.23;37.84;95487.22;6208748;28;103769;-57
2022/05/11 06:03:14;;;;;;;5.47;4.97;;;;;;;22.28;37.46;95495.13;6207913;28;103859;-57
2022/05/11 06:06:15;;;;;;;5.97;5.37;;;;;;;22.33;37.73;95500.34;6208631;28;104447;-57
2022/05/11 06:09:17;;;;;;;8.07;5.00;;;;;;;22.38;37.58;95500.28;6197641;28;103802;-57
2022/05/11 06:12:19;;;;;;;5.17;4.77;;;;;;;22.43;37.51;95500.16;6207695;28;103726;-57
2022/05/11 06:15:21;;;;;;;5.00;4.50;;;;;;;22.48;37.87;95500.06;6208030;28;104929;-58
2022/05/11 06:18:24;;;;;;;5.60;5.10;;;;;;;22.52;37.61;95509.06;6203458;27;104774;-57
2022/05/11 06:21:26;;;;;;;7.53;4.90;;;;;;;22.56;37.90;95502.03;6200894;28;103637;-58
2022/05/11 06:24:30;;;;;;;6.30;5.30;;;;;;;22.60;37.81;95519.06;6207419;28;104004;-57
2022/05/11 06:27:32;;;;;;;4.93;4.53;;;;;;;22.62;37.32;95508.88;6207518;28;103636;-65
2022/05/11 06:30:34;;;;;;;5.57;5.00;;;;;;;22.71;37.29;95509.00;6197427;28;104624;-58
2022/05/11 06:33:36;;;;;;;5.70;5.20;;;;;;;22.76;37.64;95511.53;6207203;28;103675;-58
2022/05/11 06:36:38;;;;;;;8.00;5.40;;;;;;;22.76;37.55;95513.41;6208207;28;104936;-57
2022/05/11 06:39:40;;;;;;;5.67;5.10;;;;;;;22.74;37.45;95503.06;6205287;28;103865;-57
2022/05/11 06:42:42;;;;;;;6.60;5.17;;;;;;;22.77;37.50;95513.13;6197264;28;104541;-57
2022/05/11 06:45:45;;;;;;;7.30;5.60;;;;;;;22.80;37.30;95511.72;6207041;28;103598;-58
2022/05/11 06:48:47;;;;;;;6.77;5.23;;;;;;;22.82;37.29;95498.88;6206641;28;103664;-58
2022/05/11 06:51:49;;;;;;;5.80;5.30;;;;;;;22.85;37.13;95498.28;6207533;28;104867;-57
2022/05/11 07:01:31;;;;;;;6.30;5.00;;;;;;;22.93;37.16;95510.94;6207079;28;104517;-58
2022/05/11 07:04:35;;;;;;;5.70;5.20;;;;;;;22.97;37.36;95507.34;6196638;28;104981;-57
2022/05/11 07:07:36;;;;;;;5.97;5.30;;;;;;;22.98;37.35;95497.47;6207097;28;104148;-57
2022/05/11 07:12:17;;;;;;;5.47;4.97;;;;;;;23.01;36.92;95500.31;6206144;28;103945;-58
2022/05/11 07:14:06;;;;;;;6.20;5.60;;;;;;;23.04;36.76;95501.63;6206466;28;103709;-58
2022/05/11 07:17:08;;;;;;;5.70;5.20;;;;;;;23.08;36.87;95499.94;6196112;28;104806;-57
2022/05/11 07:20:12;;;;;;;5.50;4.90;;;;;;;23.10;37.16;95502.28;6207225;28;103558;-57
2022/05/11 07:23:14;;;;;;;5.93;5.33;;;;;;;23.12;36.78;95490.22;6206375;28;104698;-58
2022/05/11 07:26:16;;;;;;;5.90;5.03;;;;;;;23.13;36.71;95493.69;6202765;28;103906;-58
2022/05/11 07:29:18;;;;;;;5.70;5.20;;;;;;;23.15;36.50;95486.94;6200899;28;103765;-57
2022/05/11 07:32:21;;;;;;;5.63;5.13;;;;;;;23.18;36.65;95480.19;6206361;28;104996;-57
2022/05/11 07:35:23;;;;;;;6.13;5.53;;;;;;;23.19;36.85;95481.81;6207608;28;104814;-58
2022/05/11 07:38:25;;;;;;;5.53;5.03;;;;;;;23.21;36.66;95477.75;6200938;28;103576;-58
2022/05/11 07:41:27;;;;;;;6.00;5.40;;;;;;;23.22;36.94;95481.19;6208973;28;104565;-58
2022/05/11 07:44:29;;;;;;;6.20;5.70;;;;;;;23.25;36.40;95478.72;6210611;28;104195;-58
2022/05/11 07:47:30;;;;;;;5.33;4.83;;;;;;;23.27;36.75;95473.06;6210174;28;104008;-58
2022/05/11 07:50:32;;;;;;;6.00;5.37;;;;;;;23.28;36.49;95466.63;6199291;28;103874;-57
2022/05/11 07:53:35;;;;;;;6.00;5.03;;;;;;;23.25;36.64;95467.25;6210012;28;104024;-58
2022/05/11 08:00:06;;;;;;;6.60;5.47;;;;;;;23.29;36.51;95461.03;6210354;28;103951;-58
2022/05/11 08:03:09;;;;;;;5.40;4.60;;;;;;;23.30;36.49;95462.59;6199686;28;104678;-58
2022/05/11 08:06:11;;;;;;;7.23;5.00;;;;;;;23.31;36.25;95463.38;6210336;28;103709;-59
2022/05/11 08:09:13;;;;;;;5.80;5.23;;;;;;;23.34;36.27;95456.66;6210657;28;103039;-61
2022/05/11 08:12:15;;;;;;;5.50;5.00;;;;;;;23.35;36.44;95452.88;6203345;28;103785;-58
2022/05/11 08:15:17;;;;;;;5.80;5.20;;;;;;;23.35;36.82;95453.66;6188663;28;103973;-59
2022/05/11 08:18:19;;;;;;;5.90;5.40;;;;;;;23.35;36.21;95455.53;6210069;28;104699;-59
2022/05/11 08:21:21;;;;;;;6.20;5.23;;;;;;;23.37;36.29;95450.72;6209833;28;103787;-59
2022/05/11 08:24:23;;;;;;;5.97;5.37;;;;;;;23.38;36.29;95444.28;6199003;27;105013;-58
2022/05/11 08:27:28;;;;;;;5.47;4.90;;;;;;;23.36;36.18;95444.59;6210394;28;105115;-59
2022/05/11 08:33:55;;;;;;;5.93;5.07;;;;;;;23.32;36.66;95448.94;6209452;28;103691;-58
2022/05/11 08:37:13;;;;;;;5.87;5.20;;;;;;;23.30;37.09;95446.56;6198360;28;104025;-58
2022/05/11 08:40:39;;;;;;;6.23;5.63;;;;;;;23.29;37.09;95438.88;6209629;28;104353;-58
2022/05/11 08:43:42;;;;;;;6.73;6.03;;;;;;;23.30;37.11;95435.09;6209814;28;104680;-58
2022/05/11 08:47:03;;;;;;;6.43;5.83;;;;;;;23.29;36.82;95436.97;6197823;28;103958;-58
2022/05/11 08:50:16;;;;;;;7.00;5.90;;;;;;;23.34;36.98;95444.06;6208734;28;103781;-58
2022/05/11 08:53:51;;;;;;;6.77;6.10;;;;;;;23.36;36.89;95438.47;6208978;28;103711;-59
2022/05/11 08:56:55;;;;;;;8.90;6.43;;;;;;;23.37;36.58;95440.03;6208391;28;103661;-58
2022/05/11 09:00:08;;;;;;;7.43;6.77;;;;;;;23.36;37.18;95439.25;6198548;28;105094;-59
2022/05/11 09:03:27;;;;;;;7.13;6.53;;;;;;;23.37;37.03;95443.50;6208747;28;104011;-59
2022/05/11 09:06:30;;;;;;;7.33;6.63;;;;;;;23.38;36.89;95436.28;6208206;28;103790;-58
2022/05/11 09:09:32;;;;;;;7.43;6.20;;;;;;;23.39;36.75;95440.50;6197255;28;103612;-58
2022/05/11 09:12:35;;;;;;;7.40;6.70;;;;;;;23.37;36.60;95438.16;6209588;28;106297;-58
2022/05/11 09:15:53;;;;;;;10.30;6.80;;;;;;;23.37;36.74;95429.34;6207883;28;103786;-59
2022/05/11 09:18:56;;;;;;;7.30;5.97;;;;;;;23.37;36.87;95435.47;6208633;28;103668;-59
2022/05/11 09:22:10;;;;;;;7.87;6.43;;;;;;;23.37;36.88;95432.03;6197291;28;103854;-59
2022/05/11 09:25:27;;;;;;;6.60;6.00;;;;;;;23.34;36.91;95436.06;6208559;28;104748;-59
2022/05/11 09:28:32;;;;;;;7.23;5.87;;;;;;;23.36;36.94;95436.56;6190540;28;103731;-58
2022/05/11 09:31:34;;;;;;;8.77;7.30;;;;;;;23.35;36.72;95429.63;6202918;28;104136;-58
2022/05/11 09:34:36;;;;;;;7.77;6.53;;;;;;;23.35;36.57;95431.50;6203364;28;103647;-58
2022/05/11 09:37:38;;;;;;;6.30;5.70;;;;;;;23.35;36.96;95431.50;6208263;28;103897;-58
2022/05/11 09:40:56;;;;;;;6.90;6.20;;;;;;;23.32;36.92;95426.78;6208500;28;105004;-58
2022/05/11 09:43:59;;;;;;;6.47;5.87;;;;;;;23.39;36.63;95427.16;6198214;28;103838;-58
2022/05/11 09:47:00;;;;;;;6.83;6.13;;;;;;;23.41;36.84;95422.31;6208125;28;103398;-58
2022/05/11 09:50:21;;;;;;;6.90;6.20;;;;;;;23.40;36.94;95429.53;6207676;28;103927;-58
2022/05/11 09:53:32;;;;;;;6.43;5.80;;;;;;;23.42;37.11;95421.22;6207159;28;103799;-58
2022/05/11 09:56:38;;;;;;;7.23;5.97;;;;;;;23.36;37.29;95422.44;6197257;28;103625;-59
2022/05/11 09:59:46;;;;;;;8.43;6.40;;;;;;;23.33;37.26;95417.69;6207158;28;103841;-59
2022/05/11 10:02:52;;;;;;;6.17;5.63;;;;;;;23.30;37.15;95413.75;6208231;28;104180;-59
2022/05/11 10:05:54;;;;;;;6.60;5.63;;;;;;;23.29;36.87;95407.59;6199097;28;104731;-59
2022/05/11 10:08:59;;;;;;;6.20;5.60;;;;;;;23.27;36.99;95399.09;6207795;28;104888;-59
2022/05/11 10:12:02;;;;;;;6.40;5.80;;;;;;;23.26;37.19;95402.84;6208038;28;103775;-59
2022/05/11 10:22:35;;;;;;;6.37;5.77;;;;;;;23.22;36.77;95388.53;6183086;28;105635;-59
2022/05/11 10:25:42;;;;;;;7.87;6.17;;;;;;;23.21;36.88;95397.66;6182887;28;104922;-59
2022/05/11 10:28:53;;;;;;;6.20;5.57;;;;;;;23.18;36.71;95398.22;6172969;28;103222;-59
2022/05/11 10:32:20;;;;;;;7.57;6.87;;;;;;;23.20;36.84;95388.06;6182482;28;103784;-59
2022/05/11 10:36:00;;;;;;;5.63;5.13;;;;;;;23.24;36.34;95383.69;6172791;28;103677;-58
2022/05/11 10:39:28;;;;;;;5.53;5.00;;;;;;;23.26;36.29;95386.84;6179002;28;103876;-60
2022/05/11 10:42:50;;;;;;;5.53;5.03;;;;;;;23.26;36.40;95380.69;6177702;28;104946;-59
2022/05/11 10:46:25;;;;;;;6.50;5.77;;;;;;;23.24;36.31;95389.03;6181378;28;104970;-59
2022/05/11 10:49:43;;;;;;;7.60;6.00;;;;;;;23.21;36.44;95386.19;6169590;28;105015;-58
2022/05/11 10:52:53;;;;;;;6.57;5.97;;;;;;;23.16;36.84;95387.06;6171486;28;105046;-59
2022/05/11 10:56:15;;;;;;;6.13;5.53;;;;;;;23.13;36.51;95377.00;6182552;28;104754;-59
2022/05/11 11:00:06;;;;;;;7.47;6.77;;;;;;;23.10;37.06;95382.94;6181957;28;104905;-59
2022/05/11 11:03:24;;;;;;;7.20;6.50;;;;;;;23.08;36.96;95393.16;6167184;28;103726;-59
2022/05/11 11:10:18;;;;;;;6.47;5.87;;;;;;;23.07;36.46;95382.78;6182801;28;103815;-59
2022/05/11 11:13:38;;;;;;;7.20;6.33;;;;;;;23.05;36.48;95388.41;6194052;28;104738;-59
2022/05/11 11:16:41;;;;;;;7.40;6.80;;;;;;;23.02;36.55;95389.03;6206306;28;104995;-58
2022/05/11 11:19:50;;;;;;;8.20;6.80;;;;;;;23.01;36.91;95382.09;6211259;28;104804;-59
2022/05/11 11:23:13;;;;;;;6.90;6.30;;;;;;;23.00;36.41;95401.88;6211500;28;103894;-59
2022/05/11 11:26:41;;;;;;;7.37;6.67;;;;;;;22.98;36.86;95396.81;6201583;28;105167;-59
2022/05/11 11:30:19;;;;;;;7.53;6.83;;;;;;;22.97;36.35;95405.16;6205459;28;104983;-58
2022/05/11 11:33:23;;;;;;;7.13;6.30;;;;;;;22.95;36.68;95402.00;6211095;28;103693;-59
2022/05/11 11:36:28;;;;;;;7.70;7.00;;;;;;;22.95;36.68;95404.66;6206872;28;104706;-59
2022/05/11 11:39:56;;;;;;;6.63;6.03;;;;;;;22.94;36.87;95400.41;6206048;28;105010;-58
2022/05/11 11:43:38;;;;;;;6.83;6.23;;;;;;;22.92;36.67;95405.28;6210927;28;103479;-59
2022/05/11 11:46:38;;;;;;;6.60;6.10;;;;;;;22.91;36.38;95406.34;6210975;28;103622;-59
2022/05/11 11:49:40;;;;;;;6.73;5.90;;;;;;;22.89;37.01;95406.66;6200302;28;104648;-58
2022/05/11 11:52:46;;;;;;;6.50;5.90;;;;;;;22.89;36.87;95404.00;6210737;28;104871;-58
2022/05/11 11:55:48;;;;;;;6.90;6.30;;;;;;;22.88;36.61;95401.63;6210993;28;103855;-58
2022/05/11 11:59:10;;;;;;;6.87;6.27;;;;;;;22.86;36.59;95399.25;6205531;28;103770;-58
2022/05/11 12:02:30;;;;;;;6.60;6.00;;;;;;;22.87;36.75;95392.03;6206153;28;104901;-59
2022/05/11 12:05:46;;;;;;;7.10;6.50;;;;;;;22.84;36.69;95390.75;6210183;28;103387;-58
2022/05/11 12:15:35;;;;;;;6.77;6.27;;;;;;;22.83;36.32;95396.38;6210475;28;103648;-58
2022/05/11 12:18:40;;;;;;;6.60;6.10;;;;;;;22.81;36.30;95383.34;6210000;28;103700;-58
2022/05/11 12:22:00;;;;;;;7.10;6.50;;;;;;;22.81;36.43;95383.34;6204901;28;104908;-59
2022/05/11 12:25:20;;;;;;;6.73;6.23;;;;;;;22.81;36.81;95387.91;6206321;28;103531;-58
2022/05/11 12:28:29;;;;;;;6.60;6.00;;;;;;;22.80;36.62;95386.31;6209484;28;103838;-58
2022/05/11 12:31:35;;;;;;;6.97;6.47;;;;;;;22.79;36.39;95388.19;6209721;28;104286;-58
2022/05/11 12:34:43;;;;;;;6.87;6.37;;;;;;;22.81;36.13;95387.91;6199084;28;104670;-58
2022/05/11 12:38:06;;;;;;;6.13;5.60;;;;;;;22.81;36.39;95383.34;6209249;28;103658;-58
2022/05/11 12:41:19;;;;;;;5.90;5.50;;;;;;;22.81;36.63;95375.34;6209308;28;103735;-58
2022/05/11 12:44:29;;;;;;;6.37;5.77;;;;;;;22.81;36.00;95383.34;6205469;28;104921;-59
2022/05/11 12:47:44;;;;;;;6.43;5.93;;;;;;;22.82;36.56;95386.81;6187704;28;105119;-58
2022/05/11 12:50:54;;;;;;;6.97;5.80;;;;;;;22.80;36.06;95383.66;6208674;28;103687;-58
2022/05/11 12:53:58;;;;;;;5.83;5.43;;;;;;;22.78;36.11;95386.63;6209737;28;104729;-58
2022/05/11 12:57:08;;;;;;;6.03;5.43;;;;;;;22.78;36.14;95385.84;6199346;28;103737;-55
2022/05/11 13:00:14;;;;;;;6.20;5.70;;;;;;;22.82;36.18;95386.81;6209744;28;103775;-55
2022/05/11 13:03:43;;;;;;;5.70;5.30;;;;;;;22.86;36.19;95387.81;6208772;28;103741;-56
2022/05/11 13:06:54;;;;;;;5.40;4.93;;;;;;;22.85;36.20;95381.69;6206221;28;104889;-54
2022/05/11 13:10:00;;;;;;;5.40;4.93;;;;;;;22.89;36.39;95381.84;6202618;28;104678;-55
2022/05/11 13:13:07;;;;;;;5.67;5.20;;;;;;;22.87;36.53;95382.16;6209649;28;106074;-55
2022/05/11 13:16:33;;;;;;;5.70;5.20;;;;;;;22.87;36.40;95382.16;6209326;28;103969;-55
2022/05/11 13:19:40;;;;;;;5.57;5.10;;;;;;;22.88;36.39;95374.94;6197500;28;103722;-54
2022/05/11 13:22:48;;;;;;;5.93;5.53;;;;;;;22.87;36.50;95376.03;6208551;28;103643;-55
2022/05/11 13:25:53;;;;;;;5.43;4.93;;;;;;;22.91;36.21;95371.66;6208659;28;104913;-59
2022/05/11 13:29:01;;;;;;;6.80;6.20;;;;;;;22.95;36.63;95384.09;6208437;28;103731;-59
2022/05/11 13:32:09;;;;;;;6.30;5.70;;;;;;;22.91;36.65;95379.69;6198747;28;105206;-59
2022/05/11 13:35:18;;;;;;;7.47;6.87;;;;;;;22.87;36.41;95374.16;6207494;28;103575;-59
2022/05/11 13:38:20;;;;;;;6.10;5.60;;;;;;;22.86;36.78;95369.13;6208848;28;104711;-59
2022/05/11 13:41:29;;;;;;;6.63;6.13;;;;;;;22.85;36.58;95376.34;6202763;28;103710;-58
2022/05/11 13:44:41;;;;;;;6.00;5.60;;;;;;;22.84;37.16;95368.63;6204861;28;104883;-59
2022/05/11 13:51:20;;;;;;;6.30;5.73;;;;;;;22.84;36.85;95363.28;6208245;28;104773;-59
2022/05/11 13:54:25;;;;;;;5.50;5.00;;;;;;;22.84;36.49;95363.28;6198816;28;104836;-58
2022/05/11 13:57:27;;;;;;;6.07;5.67;;;;;;;22.84;36.55;95369.41;6208029;28;103643;-59
2022/05/11 14:00:29;;;;;;;5.57;5.07;;;;;;;22.84;36.84;95369.41;6208707;28;104678;-58
2022/05/11 14:03:33;;;;;;;5.47;5.00;;;;;;;22.84;37.01;95361.41;6207982;28;103807;-59
2022/05/11 14:06:56;;;;;;;5.43;4.93;;;;;;;22.83;36.64;95361.69;6199633;28;104688;-58
2022/05/11 14:09:57;;;;;;;5.37;5.03;;;;;;;22.82;37.16;95346.78;6207844;28;103984;-58
2022/05/11 14:12:59;;;;;;;5.47;5.07;;;;;;;22.82;37.04;95349.44;6207706;28;103410;-58
2022/05/11 14:16:05;;;;;;;5.80;5.30;;;;;;;22.83;36.82;95359.03;6198380;28;103888;-58
2022/05/11 14:19:07;;;;;;;6.30;5.80;;;;;;;22.82;36.68;95360.91;6207762;28;105229;-54
2022/05/11 14:22:09;;;;;;;5.83;5.33;;;;;;;22.83;36.93;95351.03;6207393;28;103680;-55
2022/05/11 14:25:13;;;;;;;5.80;5.40;;;;;;;22.86;36.84;95351.22;6207255;28;103888;-55
2022/05/11 14:28:24;;;;;;;5.60;5.17;;;;;;;22.85;36.80;95346.16;6195819;28;103685;-57
2022/05/11 14:31:26;;;;;;;5.80;5.30;;;;;;;22.87;36.97;95342.13;6207622;28;104969;-54
2022/05/11 14:34:29;;;;;;;5.83;5.40;;;;;;;22.87;37.01;95341.34;6206901;28;103732;-54
2022/05/11 14:37:30;;;;;;;5.80;5.40;;;;;;;22.86;36.96;95339.78;6207456;28;104842;-54
2022/05/11 14:40:33;;;;;;;5.70;5.20;;;;;;;22.86;36.95;95339.78;6197007;28;104514;-54
2022/05/11 14:43:34;;;;;;;5.17;4.77;;;;;;;22.85;37.02;95343.50;6207303;28;103518;-54
2022/05/11 14:46:39;;;;;;;5.63;5.23;;;;;;;22.86;37.03;95339.78;6210587;28;103747;-54
2022/05/11 14:49:43;;;;;;;6.30;5.87;;;;;;;22.85;36.68;95332.84;6203645;28;104830;-55
2022/05/11 14:52:45;;;;;;;5.70;5.07;;;;;;;22.85;36.52;95333.66;6209478;28;103783;-54
2022/05/11 14:55:47;;;;;;;5.37;4.93;;;;;;;22.84;36.95;95332.03;6211648;28;104573;-54
2022/05/11 15:02:10;;;;;;;6.47;5.70;;;;;;;22.79;36.67;95328.72;6201070;28;104851;-58
2022/05/11 15:05:15;;;;;;;6.80;6.10;;;;;;;22.78;37.23;95321.81;6212105;28;104692;-58
2022/05/11 15:08:18;;;;;;;8.40;6.77;;;;;;;22.76;36.54;95319.44;6211678;28;103747;-58
2022/05/11 15:14:41;;;;;;;7.80;7.03;;;;;;;22.75;36.49;95312.53;6202404;28;104301;-57
2022/05/11 15:17:43;;;;;;;8.03;7.27;;;;;;;22.74;36.34;95318.97;6212759;28;104022;-57